createdAt,value
2018-04-26T00:00:51.479Z,66.80
2018-04-26T00:03:18.946Z,67.20
2018-04-26T00:05:46.429Z,67.40
2018-04-26T00:08:14.002Z,67.30
2018-04-26T00:10:42.333Z,67.90
2018-04-26T00:13:09.795Z,68.10
2018-04-26T00:15:37.261Z,67.50
2018-04-26T00:18:04.753Z,68.40
2018-04-26T00:20:32.214Z,67.50
2018-04-26T00:22:59.670Z,67.60
2018-04-26T00:25:29.073Z,68.80
2018-04-26T00:27:56.543Z,68.80
2018-04-26T00:30:23.979Z,68.30
2018-04-26T00:32:52.822Z,68.80
2018-04-26T00:35:20.470Z,69.10
2018-04-26T00:37:47.947Z,69.30
2018-04-26T00:40:15.401Z,69.50
2018-04-26T00:42:43.679Z,68.50
2018-04-26T00:45:11.124Z,68.40
2018-04-26T00:47:38.566Z,68.20
2018-04-26T00:50:06.014Z,68.00
2018-04-26T00:52:33.518Z,67.50
2018-04-26T00:55:00.969Z,67.60
2018-04-26T00:57:28.446Z,67.90
2018-04-26T00:59:55.927Z,68.30
2018-04-26T01:02:23.454Z,68.00
2018-04-26T01:04:50.926Z,67.60
2018-04-26T01:07:18.408Z,67.30
2018-04-26T01:09:45.857Z,66.80
2018-04-26T01:12:13.310Z,66.50
2018-04-26T01:14:40.769Z,66.90
2018-04-26T01:17:08.237Z,66.60
2018-04-26T01:19:35.686Z,66.70
2018-04-26T01:22:03.146Z,67.00
2018-04-26T01:24:30.609Z,67.30
2018-04-26T01:26:58.071Z,67.00
2018-04-26T01:29:26.959Z,67.60
2018-04-26T01:31:54.466Z,67.60
2018-04-26T01:34:21.993Z,67.00
2018-04-26T01:37:01.371Z,67.20
2018-04-26T01:39:28.904Z,67.10
2018-04-26T01:41:56.372Z,67.10
2018-04-26T01:44:23.818Z,67.40
2018-04-26T01:46:51.311Z,67.60
2018-04-26T01:49:18.780Z,67.60
2018-04-26T01:51:46.210Z,67.90
2018-04-26T01:54:14.633Z,68.10
2018-04-26T01:56:42.083Z,67.70
2018-04-26T01:59:09.542Z,68.10
2018-04-26T02:01:36.998Z,68.60
2018-04-26T02:04:04.565Z,68.80
2018-04-26T02:06:32.037Z,68.70
2018-04-26T02:08:59.495Z,69.00
2018-04-26T02:11:26.962Z,69.40
2018-04-26T02:13:54.517Z,69.90
2018-04-26T02:16:22.017Z,70.10
2018-04-26T02:18:50.290Z,70.30
2018-04-26T02:21:17.747Z,69.80
2018-04-26T02:23:45.202Z,70.60
2018-04-26T02:26:12.680Z,70.10
2018-04-26T02:28:40.946Z,70.80
2018-04-26T02:31:08.503Z,70.80
2018-04-26T02:33:35.961Z,71.70
2018-04-26T02:36:03.417Z,70.90
2018-04-26T02:38:30.885Z,70.90
2018-04-26T02:40:58.356Z,71.30
2018-04-26T02:43:25.838Z,70.90
2018-04-26T02:45:53.294Z,71.30
2018-04-26T02:48:20.765Z,71.10
2018-04-26T02:50:48.218Z,71.30
2018-04-26T02:53:15.648Z,71.50
2018-04-26T02:55:43.114Z,71.30
2018-04-26T02:58:10.597Z,71.80
2018-04-26T03:00:38.158Z,71.30
2018-04-26T03:03:05.609Z,71.20
2018-04-26T03:05:33.073Z,72.00
2018-04-26T03:08:00.538Z,71.50
2018-04-26T03:10:27.998Z,71.60
2018-04-26T03:12:55.453Z,71.60
2018-04-26T03:15:22.918Z,71.80
2018-04-26T03:17:50.410Z,71.80
2018-04-26T03:20:18.630Z,71.80
2018-04-26T03:22:46.126Z,71.70
2018-04-26T03:25:13.574Z,72.10
2018-04-26T03:27:41.036Z,72.00
2018-04-26T03:30:08.484Z,72.00
2018-04-26T03:32:36.896Z,72.20
2018-04-26T03:35:04.442Z,72.30
2018-04-26T03:37:31.919Z,71.80
2018-04-26T03:39:59.382Z,72.40
2018-04-26T03:42:26.825Z,72.40
2018-04-26T03:44:55.326Z,72.60
2018-04-26T03:47:23.672Z,72.40
2018-04-26T03:49:51.398Z,72.50
2018-04-26T03:52:18.867Z,72.60
2018-04-26T03:54:46.311Z,72.00
2018-04-26T03:57:13.796Z,72.20
2018-04-26T03:59:53.065Z,72.30
2018-04-26T04:02:32.477Z,72.00
2018-04-26T04:05:11.887Z,72.00
2018-04-26T04:07:39.433Z,72.40
2018-04-26T04:10:07.109Z,71.80
2018-04-26T04:12:34.560Z,72.10
2018-04-26T04:15:02.032Z,71.90
2018-04-26T04:17:29.473Z,71.70
2018-04-26T04:19:56.953Z,72.30
2018-04-26T04:22:24.395Z,71.90
2018-04-26T04:24:51.834Z,71.70
2018-04-26T04:27:20.082Z,71.70
2018-04-26T04:29:47.555Z,71.70
2018-04-26T04:32:15.029Z,71.50
2018-04-26T04:34:43.302Z,71.20
2018-04-26T04:37:13.118Z,71.10
2018-04-26T04:39:41.954Z,71.90
2018-04-26T04:42:09.437Z,72.60
2018-04-26T04:44:37.022Z,72.30
2018-04-26T04:47:04.474Z,72.00
2018-04-26T04:49:31.934Z,72.00
2018-04-26T04:51:59.428Z,71.80
2018-04-26T04:54:26.861Z,72.40
2018-04-26T04:56:54.315Z,72.30
2018-04-26T04:59:22.320Z,71.80
2018-04-26T05:01:49.880Z,72.00
2018-04-26T05:04:17.371Z,72.60
2018-04-26T05:06:45.601Z,72.20
2018-04-26T05:09:13.317Z,72.20
2018-04-26T05:11:40.941Z,72.40
2018-04-26T05:14:08.386Z,73.00
2018-04-26T05:16:35.854Z,72.90
2018-04-26T05:19:03.436Z,73.20
2018-04-26T05:21:30.992Z,72.80
2018-04-26T05:23:58.559Z,73.70
2018-04-26T05:26:26.030Z,73.00
2018-04-26T05:28:53.582Z,72.70
2018-04-26T05:31:21.040Z,73.00
2018-04-26T05:33:48.519Z,72.60
2018-04-26T05:36:16.020Z,72.80
2018-04-26T05:38:43.438Z,72.80
2018-04-26T05:41:10.887Z,71.70
2018-04-26T05:43:38.433Z,70.80
2018-04-26T05:46:05.903Z,71.10
2018-04-26T05:48:33.359Z,70.60
2018-04-26T05:51:00.838Z,70.80
2018-04-26T05:53:28.312Z,70.50
2018-04-26T05:55:55.861Z,69.90
2018-04-26T05:58:23.255Z,69.40
2018-04-26T06:00:50.705Z,69.50
2018-04-26T06:03:18.185Z,69.30
2018-04-26T06:05:45.677Z,68.70
2018-04-26T06:08:13.895Z,69.00
2018-04-26T06:10:41.439Z,68.90
2018-04-26T06:13:08.939Z,69.70
2018-04-26T06:15:36.723Z,69.60
2018-04-26T06:18:04.167Z,68.60
2018-04-26T06:20:31.735Z,68.50
2018-04-26T06:22:59.218Z,67.80
2018-04-26T06:25:26.776Z,68.30
2018-04-26T06:27:54.213Z,67.20
2018-04-26T06:30:21.694Z,66.50
2018-04-26T06:32:49.346Z,66.10
2018-04-26T06:35:17.666Z,66.10
2018-04-26T06:37:45.200Z,65.90
2018-04-26T06:40:12.653Z,65.30
2018-04-26T06:42:40.190Z,65.90
2018-04-26T06:45:07.728Z,65.90
2018-04-26T06:47:35.947Z,66.30
2018-04-26T06:50:03.404Z,65.50
2018-04-26T06:52:30.858Z,65.60
2018-04-26T06:54:58.424Z,64.80
2018-04-26T06:57:25.866Z,65.40
2018-04-26T06:59:54.105Z,63.70
2018-04-26T07:02:21.665Z,63.70
2018-04-26T07:04:49.141Z,63.70
2018-04-26T07:07:16.594Z,64.50
2018-04-26T07:09:44.068Z,64.10
2018-04-26T07:12:11.705Z,64.30
2018-04-26T07:14:39.103Z,64.00
2018-04-26T07:17:07.329Z,64.00
2018-04-26T07:19:34.789Z,64.00
2018-04-26T07:22:02.254Z,63.80
2018-04-26T07:24:29.712Z,64.50
2018-04-26T07:26:57.157Z,63.50
2018-04-26T07:29:25.423Z,63.10
2018-04-26T07:31:52.884Z,63.10
2018-04-26T07:34:20.409Z,62.70
2018-04-26T07:36:47.947Z,63.80
2018-04-26T07:39:15.468Z,62.60
2018-04-26T07:41:42.945Z,62.80
2018-04-26T07:44:11.200Z,62.80
2018-04-26T07:46:38.674Z,62.80
2018-04-26T07:49:06.128Z,62.20
2018-04-26T07:51:33.590Z,61.90
2018-04-26T07:54:01.044Z,62.00
2018-04-26T07:56:28.517Z,62.10
2018-04-26T07:58:55.973Z,61.70
2018-04-26T08:01:23.614Z,62.00
2018-04-26T08:03:50.983Z,62.10
2018-04-26T08:06:18.434Z,61.90
2018-04-26T08:08:45.901Z,61.50
2018-04-26T08:11:13.374Z,62.00
2018-04-26T08:13:40.837Z,61.80
2018-04-26T08:16:08.306Z,61.90
2018-04-26T08:18:35.797Z,61.60
2018-04-26T08:21:03.260Z,61.60
2018-04-26T08:23:31.480Z,62.20
2018-04-26T08:25:59.038Z,61.80
2018-04-26T08:28:26.477Z,61.50
2018-04-26T08:30:54.730Z,60.00
2018-04-26T08:33:22.180Z,60.00
2018-04-26T08:35:49.643Z,60.70
2018-04-26T08:38:17.113Z,61.30
2018-04-26T08:40:44.558Z,61.50
2018-04-26T08:43:12.103Z,60.40
2018-04-26T08:45:39.529Z,61.20
2018-04-26T08:48:07.025Z,61.40
2018-04-26T08:50:34.528Z,60.20
2018-04-26T08:53:01.989Z,60.70
2018-04-26T08:55:29.461Z,60.30
2018-04-26T08:57:56.906Z,59.90
2018-04-26T09:00:24.459Z,60.40
2018-04-26T09:02:51.922Z,60.80
2018-04-26T09:05:19.369Z,61.00
2018-04-26T09:07:46.851Z,60.80
2018-04-26T09:10:14.306Z,60.40
2018-04-26T09:12:41.799Z,60.10
2018-04-26T09:15:09.359Z,59.70
2018-04-26T09:17:37.791Z,60.00
2018-04-26T09:20:05.260Z,59.50
2018-04-26T09:22:32.711Z,59.80
2018-04-26T09:25:00.159Z,59.10
2018-04-26T09:27:28.497Z,55.70
2018-04-26T09:29:55.980Z,55.60
2018-04-26T09:32:23.409Z,58.60
2018-04-26T09:34:50.912Z,58.30
2018-04-26T09:37:18.366Z,56.90
2018-04-26T09:39:45.805Z,55.70
2018-04-26T09:42:13.278Z,56.60
2018-04-26T09:44:40.741Z,55.30
2018-04-26T09:47:08.190Z,55.30
2018-04-26T09:49:35.651Z,54.50
2018-04-26T09:52:03.114Z,53.60
2018-04-26T09:54:30.573Z,53.80
2018-04-26T09:56:58.033Z,54.00
2018-04-26T09:59:25.476Z,53.40
2018-04-26T10:01:58.631Z,52.80
2018-04-26T10:04:26.100Z,52.50
2018-04-26T10:06:59.414Z,52.00
2018-04-26T10:09:26.870Z,52.00
2018-04-26T10:11:55.094Z,50.10
2018-04-26T10:14:22.575Z,50.10
2018-04-26T10:16:50.023Z,49.30
2018-04-26T10:19:17.498Z,48.50
2018-04-26T10:21:45.085Z,49.10
2018-04-26T10:24:12.546Z,49.20
2018-04-26T10:26:40.078Z,48.10
2018-04-26T10:29:07.540Z,48.40
2018-04-26T10:31:35.080Z,49.60
2018-04-26T10:34:02.665Z,45.90
2018-04-26T10:36:30.230Z,45.90
2018-04-26T10:38:57.679Z,45.10
2018-04-26T10:41:25.159Z,44.80
2018-04-26T10:43:52.602Z,42.90
2018-04-26T10:46:20.073Z,44.30
2018-04-26T10:48:47.519Z,42.80
2018-04-26T10:51:14.977Z,42.70
2018-04-26T10:53:42.438Z,43.70
2018-04-26T10:56:09.891Z,41.40
2018-04-26T10:58:37.365Z,42.60
2018-04-26T11:01:04.827Z,42.60
2018-04-26T11:03:32.323Z,42.30
2018-04-26T11:05:59.794Z,43.40
2018-04-26T11:08:27.293Z,42.30
2018-04-26T11:10:54.749Z,43.50
2018-04-26T11:13:22.982Z,45.10
2018-04-26T11:15:50.437Z,44.50
2018-04-26T11:18:17.996Z,45.50
2018-04-26T11:20:45.518Z,44.20
2018-04-26T11:23:13.080Z,43.70
2018-04-26T11:25:40.532Z,42.40
2018-04-26T11:28:08.075Z,43.30
2018-04-26T11:30:35.526Z,41.70
2018-04-26T11:33:02.989Z,40.30
2018-04-26T11:35:30.450Z,42.50
2018-04-26T11:37:57.926Z,41.60
2018-04-26T11:40:25.481Z,41.80
2018-04-26T11:42:53.047Z,43.30
2018-04-26T11:45:20.510Z,42.40
2018-04-26T11:47:47.974Z,41.40
2018-04-26T11:50:15.450Z,41.80
2018-04-26T11:52:43.009Z,42.90
2018-04-26T11:55:10.478Z,41.80
2018-04-26T11:57:37.930Z,42.40
2018-04-26T12:00:05.385Z,40.40
2018-04-26T12:02:32.890Z,38.80
2018-04-26T12:05:00.315Z,39.30
2018-04-26T12:07:27.753Z,41.00
2018-04-26T12:09:55.239Z,36.40
2018-04-26T12:12:22.714Z,36.60
2018-04-26T12:14:50.165Z,37.60
2018-04-26T12:17:17.656Z,38.30
2018-04-26T12:19:45.198Z,37.40
2018-04-26T12:22:12.634Z,36.50
2018-04-26T12:24:40.120Z,37.40
2018-04-26T12:27:07.690Z,36.00
2018-04-26T12:29:35.142Z,35.10
2018-04-26T12:32:02.586Z,38.30
2018-04-26T12:34:30.060Z,36.10
2018-04-26T12:36:57.512Z,33.90
2018-04-26T12:39:24.983Z,36.00
2018-04-26T12:41:52.438Z,37.40
2018-04-26T12:44:19.891Z,37.10
2018-04-26T12:46:47.366Z,34.80
2018-04-26T12:49:14.854Z,36.00
2018-04-26T12:51:42.314Z,35.10
2018-04-26T12:54:09.783Z,35.60
2018-04-26T12:56:37.221Z,36.60
2018-04-26T12:59:04.768Z,35.90
2018-04-26T13:01:32.258Z,35.50
2018-04-26T13:03:59.717Z,34.80
2018-04-26T13:06:27.188Z,37.40
2018-04-26T13:08:54.656Z,36.60
2018-04-26T13:11:22.126Z,33.80
2018-04-26T13:13:49.666Z,36.80
2018-04-26T13:16:17.133Z,36.10
2018-04-26T13:18:44.601Z,34.90
2018-04-26T13:21:12.095Z,36.50
2018-04-26T13:23:39.662Z,34.60
2018-04-26T13:26:07.065Z,34.30
2018-04-26T13:28:34.534Z,36.20
2018-04-26T13:31:02.017Z,37.40
2018-04-26T13:33:29.495Z,37.00
2018-04-26T13:35:58.502Z,36.60
2018-04-26T13:38:25.978Z,36.40
2018-04-26T13:40:53.502Z,35.50
2018-04-26T13:43:20.998Z,36.60
2018-04-26T13:45:48.431Z,36.00
2018-04-26T13:48:15.897Z,35.70
2018-04-26T13:50:43.338Z,35.50
2018-04-26T13:53:10.825Z,35.90
2018-04-26T13:55:38.378Z,35.20
2018-04-26T13:58:05.843Z,36.00
2018-04-26T14:00:33.306Z,34.60
2018-04-26T14:03:00.770Z,35.30
2018-04-26T14:05:28.405Z,34.60
2018-04-26T14:07:55.875Z,34.70
2018-04-26T14:10:23.351Z,35.20
2018-04-26T14:12:50.792Z,34.10
2018-04-26T14:15:18.266Z,34.70
2018-04-26T14:17:45.855Z,35.20
2018-04-26T14:20:13.305Z,35.00
2018-04-26T14:22:40.777Z,34.20
2018-04-26T14:25:08.246Z,34.60
2018-04-26T14:27:35.706Z,35.80
2018-04-26T14:30:03.183Z,35.80
2018-04-26T14:32:30.650Z,35.90
2018-04-26T14:34:58.090Z,35.90
2018-04-26T14:37:25.592Z,36.50
2018-04-26T14:39:53.113Z,35.40
2018-04-26T14:42:20.583Z,35.20
2018-04-26T14:44:48.399Z,35.70
2018-04-26T14:47:16.616Z,34.90
2018-04-26T14:49:44.080Z,34.90
2018-04-26T14:52:11.539Z,35.70
2018-04-26T14:54:39.006Z,35.70
2018-04-26T14:57:06.583Z,35.80
2018-04-26T14:59:34.031Z,34.40
2018-04-26T15:02:01.493Z,35.10
2018-04-26T15:04:28.990Z,34.40
2018-04-26T15:06:57.199Z,35.00
2018-04-26T15:09:25.463Z,35.10
2018-04-26T15:11:52.922Z,35.00
2018-04-26T15:14:20.391Z,33.80
2018-04-26T15:16:48.637Z,33.70
2018-04-26T15:19:16.094Z,33.60
2018-04-26T15:21:43.564Z,33.90
2018-04-26T15:24:11.026Z,34.80
2018-04-26T15:26:38.500Z,34.80
2018-04-26T15:29:05.966Z,35.40
2018-04-26T15:31:33.455Z,35.20
2018-04-26T15:34:01.666Z,35.20
2018-04-26T15:36:29.145Z,35.10
2018-04-26T15:38:57.127Z,35.40
2018-04-26T15:41:24.586Z,35.90
2018-04-26T15:43:52.044Z,34.10
2018-04-26T15:46:20.426Z,34.40
2018-04-26T15:48:47.877Z,35.80
2018-04-26T15:51:15.350Z,35.70
2018-04-26T15:53:54.622Z,35.80
2018-04-26T15:56:34.866Z,35.60
2018-04-26T15:59:14.254Z,35.60
2018-04-26T16:05:23.900Z,35.40
2018-04-26T16:08:09.495Z,36.00
2018-04-26T16:10:54.513Z,36.60
2018-04-26T16:13:39.549Z,36.30
2018-04-26T16:16:35.218Z,36.20
2018-04-26T16:19:20.758Z,36.20
2018-04-26T16:22:14.945Z,36.20
2018-04-26T16:24:55.286Z,36.90
2018-04-26T16:27:40.429Z,36.80
2018-04-26T16:30:20.486Z,37.10
2018-04-26T16:33:04.984Z,37.10
2018-04-26T16:35:44.413Z,36.80
2018-04-26T16:38:32.548Z,37.40
2018-04-26T16:41:00.026Z,37.50
2018-04-26T16:43:27.464Z,37.60
2018-04-26T16:45:54.917Z,37.40
2018-04-26T16:48:22.451Z,37.50
2018-04-26T16:50:50.696Z,37.30
2018-04-26T16:53:18.134Z,37.30
2018-04-26T16:55:45.610Z,37.40
2018-04-26T16:58:13.075Z,37.30
2018-04-26T17:00:40.551Z,37.50
2018-04-26T17:03:08.019Z,37.10
2018-04-26T17:05:35.462Z,37.60
2018-04-26T17:08:02.925Z,37.70
2018-04-26T17:10:30.391Z,37.70
2018-04-26T17:12:58.031Z,37.30
2018-04-26T17:15:25.561Z,37.40
2018-04-26T17:17:53.019Z,37.80
2018-04-26T17:20:21.330Z,38.20
2018-04-26T17:22:48.894Z,38.20
2018-04-26T17:25:16.393Z,37.80
2018-04-26T17:27:43.855Z,38.50
2018-04-26T17:30:11.302Z,38.50
2018-04-26T17:32:38.778Z,38.40
2018-04-26T17:35:06.221Z,38.80
2018-04-26T17:37:33.668Z,38.40
2018-04-26T17:40:01.142Z,38.60
2018-04-26T17:42:28.597Z,38.60
2018-04-26T17:44:56.052Z,38.90
2018-04-26T17:47:23.540Z,38.90
2018-04-26T17:49:50.977Z,39.00
2018-04-26T17:52:18.443Z,39.60
2018-04-26T17:54:45.930Z,39.00
2018-04-26T17:57:13.410Z,39.50
2018-04-26T17:59:40.864Z,39.30
2018-04-26T18:02:08.325Z,39.40
2018-04-26T18:04:35.794Z,39.50
2018-04-26T18:07:03.255Z,39.20
2018-04-26T18:09:30.733Z,39.40
2018-04-26T18:11:58.173Z,39.60
2018-04-26T18:14:25.633Z,39.70
2018-04-26T18:16:53.087Z,39.80
2018-04-26T18:19:20.563Z,39.90
2018-04-26T18:21:48.026Z,40.00
2018-04-26T18:24:15.589Z,39.70
2018-04-26T18:26:43.043Z,40.20
2018-04-26T18:29:10.497Z,40.40
2018-04-26T18:31:37.958Z,40.70
2018-04-26T18:34:05.426Z,41.30
2018-04-26T18:36:32.910Z,41.50
2018-04-26T18:39:00.401Z,41.90
2018-04-26T18:41:28.641Z,42.50
2018-04-26T18:43:56.127Z,42.50
2018-04-26T18:46:23.597Z,42.60
2018-04-26T18:48:51.239Z,42.70
2018-04-26T18:51:18.733Z,43.70
2018-04-26T18:53:46.170Z,43.20
2018-04-26T18:56:13.627Z,43.50
2018-04-26T18:58:41.078Z,43.60
2018-04-26T19:01:08.569Z,44.00
2018-04-26T19:03:36.005Z,44.50
2018-04-26T19:06:04.443Z,44.70
2018-04-26T19:08:32.667Z,44.90
2018-04-26T19:11:00.111Z,44.80
2018-04-26T19:13:27.593Z,45.20
2018-04-26T19:15:55.046Z,44.90
2018-04-26T19:18:22.494Z,45.10
2018-04-26T19:20:50.016Z,45.40
2018-04-26T19:23:17.462Z,45.70
2018-04-26T19:25:45.028Z,45.80
2018-04-26T19:28:12.592Z,46.40
2018-04-26T19:30:40.154Z,46.40
2018-04-26T19:33:07.682Z,47.30
2018-04-26T19:35:35.120Z,46.90
2018-04-26T19:38:03.394Z,47.90
2018-04-26T19:40:31.701Z,47.60
2018-04-26T19:42:59.252Z,47.50
2018-04-26T19:45:26.793Z,49.70
2018-04-26T19:47:55.063Z,50.00
2018-04-26T19:50:22.602Z,49.40
2018-04-26T19:52:50.048Z,48.60
2018-04-26T19:55:17.511Z,48.80
2018-04-26T19:57:44.991Z,49.50
2018-04-26T20:00:12.454Z,49.70
2018-04-26T20:02:40.137Z,50.40
2018-04-26T20:05:07.660Z,50.30
2018-04-26T20:07:35.102Z,50.10
2018-04-26T20:10:03.354Z,50.80
2018-04-26T20:12:30.809Z,50.90
2018-04-26T20:14:58.253Z,50.40
2018-04-26T20:17:25.740Z,50.80
2018-04-26T20:19:53.183Z,53.10
2018-04-26T20:22:20.845Z,51.80
2018-04-26T20:24:48.301Z,51.30
2018-04-26T20:27:15.774Z,51.80
2018-04-26T20:29:43.226Z,51.50
2018-04-26T20:32:10.689Z,52.00
2018-04-26T20:34:38.142Z,52.50
2018-04-26T20:37:05.598Z,52.20
2018-04-26T20:39:33.073Z,52.40
2018-04-26T20:42:00.523Z,52.60
2018-04-26T20:44:39.908Z,53.10
2018-04-26T20:47:08.857Z,52.50
2018-04-26T20:49:36.318Z,52.50
2018-04-26T20:52:03.796Z,53.00
2018-04-26T20:54:31.253Z,52.90
2018-04-26T20:56:58.702Z,53.00
2018-04-26T20:59:26.186Z,53.10
2018-04-26T21:01:53.658Z,52.90
2018-04-26T21:04:21.114Z,53.10
2018-04-26T21:06:48.571Z,53.50
2018-04-26T21:09:16.041Z,53.30
2018-04-26T21:11:43.510Z,53.20
2018-04-26T21:14:10.988Z,53.40
2018-04-26T21:16:38.600Z,53.60
2018-04-26T21:19:06.080Z,53.80
2018-04-26T21:21:33.554Z,53.80
2018-04-26T21:24:01.022Z,54.20
2018-04-26T21:26:28.582Z,54.10
2018-04-26T21:28:56.037Z,56.70
2018-04-26T21:31:23.481Z,58.00
2018-04-26T21:33:50.951Z,55.60
2018-04-26T21:36:18.435Z,54.80
2018-04-26T21:38:45.902Z,56.30
2018-04-26T21:41:13.358Z,56.70
2018-04-26T21:43:40.798Z,55.20
2018-04-26T21:46:08.272Z,57.70
2018-04-26T21:48:35.750Z,58.70
2018-04-26T21:51:08.872Z,58.80
2018-04-26T21:53:41.974Z,57.70
2018-04-26T21:56:15.219Z,56.10
2018-04-26T21:58:48.450Z,56.70
2018-04-26T22:01:21.512Z,56.40
2018-04-26T22:03:54.801Z,57.70
2018-04-26T22:06:22.264Z,56.80
2018-04-26T22:08:49.725Z,56.60
2018-04-26T22:11:17.302Z,56.90
2018-04-26T22:13:44.859Z,56.50
2018-04-26T22:16:12.423Z,57.00
2018-04-26T22:18:39.867Z,58.90
2018-04-26T22:21:07.347Z,57.50
2018-04-26T22:23:34.794Z,57.90
2018-04-26T22:26:02.264Z,57.40
2018-04-26T22:28:29.717Z,57.10
2018-04-26T22:30:57.150Z,57.10
2018-04-26T22:33:24.627Z,57.30
2018-04-26T22:35:52.094Z,57.00
2018-04-26T22:38:19.583Z,58.10
2018-04-26T22:40:47.036Z,59.10
2018-04-26T22:43:14.493Z,58.70
2018-04-26T22:45:41.973Z,57.90
2018-04-26T22:48:09.466Z,57.50
2018-04-26T22:50:37.102Z,58.40
2018-04-26T22:53:04.562Z,58.80
2018-04-26T22:55:32.035Z,58.20
2018-04-26T22:57:59.487Z,58.60
2018-04-26T23:00:27.056Z,59.70
2018-04-26T23:02:54.515Z,58.50
2018-04-26T23:05:21.995Z,59.20
2018-04-26T23:07:49.434Z,58.60
2018-04-26T23:10:16.904Z,58.70
2018-04-26T23:12:44.362Z,59.00
2018-04-26T23:15:11.830Z,58.30
2018-04-26T23:17:39.286Z,58.90
2018-04-26T23:20:06.722Z,58.70
2018-04-26T23:22:34.209Z,59.30
2018-04-26T23:25:01.649Z,58.70
2018-04-26T23:27:34.735Z,58.60
2018-04-26T23:30:02.217Z,59.10
2018-04-26T23:32:29.664Z,58.90
2018-04-26T23:34:57.106Z,58.80
2018-04-26T23:37:24.563Z,59.40
2018-04-26T23:39:52.770Z,59.10
2018-04-26T23:42:20.226Z,59.00
2018-04-26T23:44:47.675Z,59.50
2018-04-26T23:47:15.178Z,61.20
2018-04-26T23:49:42.626Z,59.70
2018-04-26T23:52:10.115Z,59.70
2018-04-26T23:54:37.568Z,59.60
2018-04-26T23:57:05.043Z,59.80
2018-04-26T23:59:32.503Z,59.50
